Time;durP1;ratioP1;P1;durP2;ratioP2;P2;SDS_P1;SDS_P2;PMS_P1;PMS_P2;Temp;Humidity;BMP_temperature;BMP_pressure;BME280_temperature;BME280_humidity;BME280_pressure;Samples;Min_cycle;Max_cycle;Signal;HPM_P1;HPM_P2
2023/03/22 00:01:08;;;;;;;;;;;10.10;99.90;;;;;;5043350;28;19927;-68
2023/03/22 00:03:35;;;;;;;;;;;10.10;99.90;;;;;;5044909;28;19948;-68
2023/03/22 00:06:01;;;;;;;;;;;10.10;99.90;;;;;;5043565;28;19971;-69
2023/03/22 00:08:28;;;;;;;;;;;10.10;99.90;;;;;;5044296;28;19992;-69
2023/03/22 00:10:55;;;;;;;;;;;10.10;99.90;;;;;;5044257;28;19964;-69
2023/03/22 00:13:21;;;;;;;;;;;10.00;99.90;;;;;;5044641;28;19948;-69
2023/03/22 00:15:49;;;;;;;;;;;10.00;99.90;;;;;;5044196;28;19992;-69
2023/03/22 00:18:17;;;;;;;;;;;10.00;99.90;;;;;;5043828;28;19952;-69
2023/03/22 00:20:53;;;;;;;;;;;10.00;99.90;;;;;;5044335;28;19928;-69
2023/03/22 00:23:20;;;;;;;;;;;9.90;99.90;;;;;;5044416;28;19927;-68
2023/03/22 00:25:47;;;;;;;;;;;9.90;99.90;;;;;;5043869;28;19921;-71
2023/03/22 00:28:14;;;;;;;;;;;9.90;99.90;;;;;;5043771;28;19921;-69
2023/03/22 00:30:41;;;;;;;;;;;9.90;99.90;;;;;;5044212;28;20180;-69
2023/03/22 00:33:09;;;;;;;;;;;9.90;99.90;;;;;;5044263;28;19921;-68
2023/03/22 00:35:36;;;;;;;;;;;9.90;99.90;;;;;;5043996;28;19988;-68
2023/03/22 00:38:12;;;;;;;;;;;9.80;99.90;;;;;;5043338;28;19989;-68
2023/03/22 00:40:39;;;;;;;;;;;9.80;99.90;;;;;;5044118;28;20144;-69
2023/03/22 00:43:08;;;;;;;;;;;9.80;99.90;;;;;;5043253;28;20386;-69
2023/03/22 00:45:36;;;;;;;;;;;9.70;99.90;;;;;;5043834;28;20349;-68
2023/03/22 00:48:03;;;;;;;;;;;9.70;99.90;;;;;;5043285;28;19921;-68
2023/03/22 00:50:31;;;;;;;;;;;9.60;99.90;;;;;;5043778;28;19921;-69
2023/03/22 00:52:58;;;;;;;;;;;9.60;99.90;;;;;;5043857;28;19921;-69
2023/03/22 00:55:24;;;;;;;;;;;9.50;99.90;;;;;;5024004;28;20182;-68
2023/03/22 00:57:51;;;;;;;;;;;9.50;99.90;;;;;;5023130;28;20210;-69
2023/03/22 01:00:18;;;;;;;;;;;9.50;99.90;;;;;;5024006;28;19921;-69
2023/03/22 01:02:44;;;;;;;;;;;9.50;99.90;;;;;;5024002;28;19984;-67
2023/03/22 01:05:14;;;;;;;;;;;9.40;99.90;;;;;;5041355;28;20183;-68
2023/03/22 01:07:43;;;;;;;;;;;9.40;99.90;;;;;;5042881;28;19921;-68
2023/03/22 01:10:10;;;;;;;;;;;9.40;99.90;;;;;;5043346;28;19921;-69
2023/03/22 01:12:37;;;;;;;;;;;9.30;99.90;;;;;;5043637;28;19927;-68
2023/03/22 01:15:04;;;;;;;;;;;9.30;99.90;;;;;;5043493;28;19956;-69
2023/03/22 01:17:31;;;;;;;;;;;9.30;99.90;;;;;;5042883;28;19921;-68
2023/03/22 01:19:57;;;;;;;;;;;9.30;99.90;;;;;;5043434;28;20247;-69
2023/03/22 01:22:24;;;;;;;;;;;9.30;99.90;;;;;;5043558;28;19957;-69
2023/03/22 01:24:52;;;;;;;;;;;9.30;99.90;;;;;;5043374;28;19996;-69
2023/03/22 01:27:19;;;;;;;;;;;9.20;99.90;;;;;;5042619;28;19996;-69
2023/03/22 01:29:45;;;;;;;;;;;9.20;99.90;;;;;;5042997;28;19957;-67
2023/03/22 01:32:12;;;;;;;;;;;9.20;99.90;;;;;;5043221;28;19980;-69
2023/03/22 01:34:39;;;;;;;;;;;9.20;99.90;;;;;;5043176;28;20228;-69
2023/03/22 01:37:05;;;;;;;;;;;9.20;99.90;;;;;;5042641;28;19971;-69
2023/03/22 01:39:32;;;;;;;;;;;9.20;99.90;;;;;;5042988;28;20284;-68
2023/03/22 01:42:01;;;;;;;;;;;9.20;99.90;;;;;;5043049;28;19956;-69
2023/03/22 01:44:29;;;;;;;;;;;9.20;99.90;;;;;;5043202;28;19927;-70
2023/03/22 01:46:56;;;;;;;;;;;9.10;99.90;;;;;;5043005;28;19921;-69
2023/03/22 01:49:24;;;;;;;;;;;9.10;99.90;;;;;;5042847;28;19921;-69
2023/03/22 01:51:52;;;;;;;;;;;9.10;99.90;;;;;;5042899;28;19995;-69
2023/03/22 01:54:22;;;;;;;;;;;9.00;99.90;;;;;;5043090;28;19988;-69
2023/03/22 01:56:49;;;;;;;;;;;9.00;99.90;;;;;;5042195;28;19944;-68
2023/03/22 01:59:17;;;;;;;;;;;9.00;99.90;;;;;;5043075;28;19921;-69
2023/03/22 02:01:45;;;;;;;;;;;9.00;99.90;;;;;;5043070;28;19959;-69
2023/03/22 02:04:15;;;;;;;;;;;9.00;99.90;;;;;;5042839;28;19921;-69
2023/03/22 02:06:42;;;;;;;;;;;8.90;99.90;;;;;;5042281;28;19928;-69
2023/03/22 02:09:10;;;;;;;;;;;8.90;99.90;;;;;;5043116;28;19927;-68
2023/03/22 02:11:40;;;;;;;;;;;8.90;99.90;;;;;;5042606;28;19996;-68
2023/03/22 02:14:28;;;;;;;;;;;8.90;99.90;;;;;;5042980;28;19929;-68
2023/03/22 02:17:04;;;;;;;;;;;8.80;99.90;;;;;;5043438;28;19921;-69
2023/03/22 02:19:58;;;;;;;;;;;8.80;99.90;;;;;;5046719;28;19921;-69
2023/03/22 02:22:37;;;;;;;;;;;8.70;99.90;;;;;;5046803;28;19921;-68
2023/03/22 02:25:13;;;;;;;;;;;8.70;99.90;;;;;;5046514;28;19927;-69
2023/03/22 02:27:52;;;;;;;;;;;8.60;99.90;;;;;;5045208;28;20205;-68
2023/03/22 02:30:31;;;;;;;;;;;8.60;99.90;;;;;;5046320;28;20060;-69
2023/03/22 02:33:06;;;;;;;;;;;8.60;99.90;;;;;;5045497;28;19929;-69
2023/03/22 02:35:38;;;;;;;;;;;8.50;99.90;;;;;;5045163;28;19988;-69
2023/03/22 02:38:22;;;;;;;;;;;8.50;99.90;;;;;;5045611;28;19952;-69
2023/03/22 02:40:52;;;;;;;;;;;8.40;99.90;;;;;;5045867;28;20255;-69
2023/03/22 02:43:29;;;;;;;;;;;8.40;99.90;;;;;;5045918;28;20326;-69
2023/03/22 02:46:02;;;;;;;;;;;8.40;99.90;;;;;;5046132;28;19984;-68
2023/03/22 02:48:31;;;;;;;;;;;8.30;99.90;;;;;;5045901;28;19988;-70
2023/03/22 02:51:00;;;;;;;;;;;8.30;99.90;;;;;;5046000;28;19988;-68
2023/03/22 02:53:30;;;;;;;;;;;8.20;99.90;;;;;;5046091;28;19928;-69
2023/03/22 02:55:59;;;;;;;;;;;8.30;99.90;;;;;;5045610;28;19992;-69
2023/03/22 02:58:26;;;;;;;;;;;8.20;99.90;;;;;;5045741;28;19928;-69
2023/03/22 03:00:55;;;;;;;;;;;8.20;99.90;;;;;;5045854;28;19921;-69
2023/03/22 03:03:24;;;;;;;;;;;8.10;99.90;;;;;;5045961;28;19921;-69
2023/03/22 03:05:54;;;;;;;;;;;8.10;99.90;;;;;;5025643;28;19922;-69
2023/03/22 03:08:21;;;;;;;;;;;8.00;99.90;;;;;;5035710;28;19989;-68
2023/03/22 03:10:47;;;;;;;;;;;8.00;99.90;;;;;;5045570;28;19956;-69
2023/03/22 03:13:17;;;;;;;;;;;7.90;99.90;;;;;;5045688;28;20090;-68
2023/03/22 03:15:47;;;;;;;;;;;7.90;99.90;;;;;;5045096;28;19927;-69
2023/03/22 03:18:19;;;;;;;;;;;7.90;99.90;;;;;;5045459;28;19925;-69
2023/03/22 03:20:51;;;;;;;;;;;7.90;99.90;;;;;;5045165;28;19921;-69
2023/03/22 03:23:23;;;;;;;;;;;7.80;99.90;;;;;;5045403;28;19921;-69
2023/03/22 03:25:56;;;;;;;;;;;7.80;99.90;;;;;;5044714;28;19921;-69
2023/03/22 03:28:28;;;;;;;;;;;7.80;99.90;;;;;;5044714;28;19959;-68
2023/03/22 03:30:59;;;;;;;;;;;7.70;99.90;;;;;;5045466;28;19927;-69
2023/03/22 03:33:26;;;;;;;;;;;7.70;99.90;;;;;;5045395;28;20175;-69
2023/03/22 03:35:56;;;;;;;;;;;7.70;99.90;;;;;;5044314;28;19921;-69
2023/03/22 03:38:25;;;;;;;;;;;7.70;99.90;;;;;;5044993;28;20201;-69
2023/03/22 03:40:54;;;;;;;;;;;7.70;99.90;;;;;;5044982;28;19928;-68
2023/03/22 03:43:21;;;;;;;;;;;7.60;99.90;;;;;;5045130;28;19943;-68
2023/03/22 03:45:50;;;;;;;;;;;7.60;99.90;;;;;;5041987;28;19929;-69
2023/03/22 03:48:18;;;;;;;;;;;7.50;99.90;;;;;;5044377;28;20209;-69
2023/03/22 03:50:46;;;;;;;;;;;7.50;99.90;;;;;;5044566;28;19995;-69
2023/03/22 03:53:12;;;;;;;;;;;7.50;99.90;;;;;;5044735;28;19921;-69
2023/03/22 03:55:39;;;;;;;;;;;7.50;99.90;;;;;;5044523;28;19988;-68
2023/03/22 03:58:07;;;;;;;;;;;7.40;99.90;;;;;;5044433;28;19971;-68
2023/03/22 04:00:34;;;;;;;;;;;7.40;99.90;;;;;;5044551;28;19921;-70
2023/03/22 04:03:02;;;;;;;;;;;7.40;99.90;;;;;;5044821;28;19988;-68
2023/03/22 04:05:29;;;;;;;;;;;7.40;99.90;;;;;;5044718;28;19984;-68
2023/03/22 04:07:55;;;;;;;;;;;7.30;99.90;;;;;;5044471;28;19988;-69
2023/03/22 04:10:22;;;;;;;;;;;7.30;99.90;;;;;;5044510;28;20131;-70
2023/03/22 04:12:48;;;;;;;;;;;7.20;99.90;;;;;;5044373;28;19927;-69
2023/03/22 04:15:15;;;;;;;;;;;7.20;99.90;;;;;;5044449;28;19952;-69
2023/03/22 04:17:42;;;;;;;;;;;7.10;99.90;;;;;;5044003;28;20349;-68
2023/03/22 04:20:12;;;;;;;;;;;7.10;99.90;;;;;;5044008;28;20231;-70
2023/03/22 04:22:39;;;;;;;;;;;7.10;99.90;;;;;;5044416;28;20113;-69
2023/03/22 04:25:10;;;;;;;;;;;7.00;99.90;;;;;;5044266;28;19921;-69
2023/03/22 04:27:37;;;;;;;;;;;7.00;99.90;;;;;;5043831;28;19956;-68
2023/03/22 04:30:04;;;;;;;;;;;6.90;99.90;;;;;;5044221;28;19921;-69
2023/03/22 04:32:31;;;;;;;;;;;6.90;99.90;;;;;;5044171;28;20203;-69
2023/03/22 04:34:57;;;;;;;;;;;6.90;99.90;;;;;;5044024;28;19952;-68
2023/03/22 04:37:26;;;;;;;;;;;6.90;99.90;;;;;;5043024;28;19921;-68
2023/03/22 04:39:53;;;;;;;;;;;6.80;99.90;;;;;;5043783;28;20217;-69
2023/03/22 04:42:20;;;;;;;;;;;6.80;99.90;;;;;;5044146;28;19921;-68
2023/03/22 04:44:47;;;;;;;;;;;6.80;99.90;;;;;;5043711;28;19921;-68
2023/03/22 04:47:13;;;;;;;;;;;6.80;99.90;;;;;;5043108;28;19921;-69
2023/03/22 04:49:40;;;;;;;;;;;6.90;99.90;;;;;;5043945;28;19960;-68
2023/03/22 04:52:07;;;;;;;;;;;6.80;99.90;;;;;;5043966;28;19988;-69
2023/03/22 04:54:35;;;;;;;;;;;6.70;99.90;;;;;;5043605;28;20213;-69
2023/03/22 04:57:02;;;;;;;;;;;6.70;99.90;;;;;;5042879;28;19921;-69
2023/03/22 04:59:28;;;;;;;;;;;6.60;99.90;;;;;;5043625;28;20272;-69
2023/03/22 05:01:55;;;;;;;;;;;6.60;99.90;;;;;;5043407;28;19992;-69
2023/03/22 05:04:22;;;;;;;;;;;6.60;99.90;;;;;;5043381;28;19921;-68
2023/03/22 05:06:49;;;;;;;;;;;6.50;99.90;;;;;;5042916;28;19988;-69
2023/03/22 05:09:15;;;;;;;;;;;6.50;99.90;;;;;;5043661;28;19921;-68
2023/03/22 05:11:43;;;;;;;;;;;6.50;99.90;;;;;;5043193;28;19927;-69
2023/03/22 05:14:10;;;;;;;;;;;6.40;99.90;;;;;;5043602;28;19928;-68
2023/03/22 05:16:39;;;;;;;;;;;6.40;99.90;;;;;;5043041;28;19993;-69
2023/03/22 05:19:12;;;;;;;;;;;6.40;99.90;;;;;;5043207;28;19971;-70
2023/03/22 05:21:40;;;;;;;;;;;6.40;99.90;;;;;;5043516;28;19964;-69
2023/03/22 05:24:07;;;;;;;;;;;6.40;99.90;;;;;;5043135;28;19921;-69
2023/03/22 05:26:36;;;;;;;;;;;6.40;99.90;;;;;;5042480;28;19927;-68
2023/03/22 05:29:05;;;;;;;;;;;6.40;99.90;;;;;;5043080;28;19922;-69
2023/03/22 05:31:33;;;;;;;;;;;6.40;99.90;;;;;;5042835;28;19967;-69
2023/03/22 05:34:00;;;;;;;;;;;6.40;99.90;;;;;;5043389;28;19921;-69
2023/03/22 05:36:28;;;;;;;;;;;6.40;99.90;;;;;;5042270;28;20222;-69
2023/03/22 05:38:55;;;;;;;;;;;6.40;99.90;;;;;;5042951;28;19921;-68
2023/03/22 05:41:21;;;;;;;;;;;6.40;99.90;;;;;;5042888;28;19980;-69
2023/03/22 05:43:49;;;;;;;;;;;6.40;99.90;;;;;;5042969;28;19921;-68
2023/03/22 05:46:17;;;;;;;;;;;6.40;99.90;;;;;;5042046;28;19984;-69
2023/03/22 05:48:44;;;;;;;;;;;6.30;99.90;;;;;;5042919;28;19941;-68
2023/03/22 05:51:16;;;;;;;;;;;6.30;99.90;;;;;;5045708;28;20213;-71
2023/03/22 05:53:43;;;;;;;;;;;6.20;99.90;;;;;;5047069;28;19921;-69
2023/03/22 05:56:09;;;;;;;;;;;6.20;99.90;;;;;;5046626;28;19927;-69
2023/03/22 05:58:36;;;;;;;;;;;6.20;99.90;;;;;;5046969;28;20205;-68
2023/03/22 06:01:04;;;;;;;;;;;6.20;99.90;;;;;;5047075;28;19991;-68
2023/03/22 06:03:32;;;;;;;;;;;6.20;99.90;;;;;;5046828;28;19992;-70
2023/03/22 06:05:59;;;;;;;;;;;6.20;99.90;;;;;;5046475;28;19921;-70
2023/03/22 06:08:26;;;;;;;;;;;6.20;99.90;;;;;;5046484;28;19926;-70
2023/03/22 06:10:53;;;;;;;;;;;6.10;99.90;;;;;;5046897;28;20157;-69
2023/03/22 06:13:20;;;;;;;;;;;6.10;99.90;;;;;;5047027;28;19921;-69
2023/03/22 06:15:47;;;;;;;;;;;6.10;99.90;;;;;;5046160;28;19988;-69
2023/03/22 06:18:14;;;;;;;;;;;6.10;99.90;;;;;;5046508;28;19921;-69
2023/03/22 06:20:42;;;;;;;;;;;6.10;99.90;;;;;;5046549;28;19921;-70
2023/03/22 06:23:09;;;;;;;;;;;6.10;99.90;;;;;;5046591;28;19936;-70
2023/03/22 06:25:36;;;;;;;;;;;6.10;99.90;;;;;;5046709;28;19936;-71
2023/03/22 06:28:03;;;;;;;;;;;6.20;99.90;;;;;;5046079;28;19921;-69
2023/03/22 06:30:29;;;;;;;;;;;6.20;99.90;;;;;;5046469;28;19927;-69
2023/03/22 06:32:59;;;;;;;;;;;6.30;99.90;;;;;;5045603;28;19980;-69
2023/03/22 06:35:26;;;;;;;;;;;6.30;99.90;;;;;;5046407;28;19929;-70
2023/03/22 06:37:54;;;;;;;;;;;6.40;99.90;;;;;;5046307;28;19927;-71
2023/03/22 06:40:20;;;;;;;;;;;6.40;99.90;;;;;;5046094;28;19976;-69
2023/03/22 06:42:47;;;;;;;;;;;6.40;99.90;;;;;;5046729;28;19967;-69
2023/03/22 06:45:15;;;;;;;;;;;6.60;99.90;;;;;;5046219;28;20157;-68
2023/03/22 06:47:41;;;;;;;;;;;6.60;99.90;;;;;;5045657;28;19984;-69
2023/03/22 06:50:09;;;;;;;;;;;6.80;99.90;;;;;;5045902;28;19964;-69
2023/03/22 06:52:35;;;;;;;;;;;7.10;99.90;;;;;;5045961;28;20112;-69
2023/03/22 06:55:03;;;;;;;;;;;7.40;99.90;;;;;;5046260;28;19921;-69
2023/03/22 06:57:30;;;;;;;;;;;7.60;99.90;;;;;;5045980;28;19921;-69
2023/03/22 06:59:57;;;;;;;;;;;7.80;99.90;;;;;;5045692;28;19967;-69
2023/03/22 07:02:23;;;;;;;;;;;7.90;99.90;;;;;;5045969;28;19984;-70
2023/03/22 07:04:50;;;;;;;;;;;8.10;99.90;;;;;;5046124;28;19992;-70
2023/03/22 07:07:16;;;;;;;;;;;8.30;99.90;;;;;;5045257;28;19984;-70
2023/03/22 07:09:43;;;;;;;;;;;8.40;99.90;;;;;;5045848;28;19927;-69
2023/03/22 07:12:11;;;;;;;;;;;8.60;99.90;;;;;;5045798;28;19992;-69
2023/03/22 07:14:38;;;;;;;;;;;8.70;99.90;;;;;;5045820;28;19953;-69
2023/03/22 07:17:04;;;;;;;;;;;8.80;99.90;;;;;;5045278;28;19975;-69
2023/03/22 07:19:31;;;;;;;;;;;8.90;99.90;;;;;;5045590;28;19989;-70
2023/03/22 07:21:58;;;;;;;;;;;9.00;99.90;;;;;;5045393;28;20212;-70
2023/03/22 07:24:25;;;;;;;;;;;9.10;99.90;;;;;;5045734;28;19921;-70
2023/03/22 07:26:51;;;;;;;;;;;9.20;99.90;;;;;;5044951;28;20227;-69
2023/03/22 07:29:19;;;;;;;;;;;9.30;99.90;;;;;;5045373;28;19928;-69
2023/03/22 07:31:46;;;;;;;;;;;9.40;99.90;;;;;;5044948;28;19999;-70
2023/03/22 07:34:13;;;;;;;;;;;9.50;99.90;;;;;;5045581;28;19921;-69
2023/03/22 07:36:39;;;;;;;;;;;9.60;99.90;;;;;;5045005;28;19959;-69
2023/03/22 07:39:06;;;;;;;;;;;9.80;99.90;;;;;;5045142;28;19991;-70
2023/03/22 07:41:32;;;;;;;;;;;9.80;99.90;;;;;;5045069;28;19980;-69
2023/03/22 07:43:59;;;;;;;;;;;9.90;99.90;;;;;;5045301;28;19967;-69
2023/03/22 07:46:27;;;;;;;;;;;10.00;99.90;;;;;;5044824;28;19921;-69
2023/03/22 07:48:54;;;;;;;;;;;10.10;99.90;;;;;;5045335;28;19921;-69
2023/03/22 07:51:20;;;;;;;;;;;10.20;99.90;;;;;;5045120;28;19988;-69
2023/03/22 07:53:47;;;;;;;;;;;10.30;99.90;;;;;;5044986;28;19989;-68
2023/03/22 07:56:14;;;;;;;;;;;10.40;99.90;;;;;;5044798;28;19921;-70
2023/03/22 07:58:40;;;;;;;;;;;10.40;99.90;;;;;;5045093;28;19963;-69
2023/03/22 08:01:08;;;;;;;;;;;10.50;99.90;;;;;;5044869;28;19953;-69
2023/03/22 08:03:36;;;;;;;;;;;10.60;99.90;;;;;;5044901;28;19921;-69
2023/03/22 08:06:06;;;;;;;;;;;10.60;99.90;;;;;;5044347;28;19928;-70
2023/03/22 08:08:33;;;;;;;;;;;10.70;99.90;;;;;;5044629;28;19963;-69
2023/03/22 08:10:59;;;;;;;;;;;10.80;99.90;;;;;;5044321;28;19945;-70
2023/03/22 08:13:26;;;;;;;;;;;10.80;99.90;;;;;;5044100;28;19957;-69
2023/03/22 08:15:52;;;;;;;;;;;10.90;99.90;;;;;;5044293;28;19947;-68
2023/03/22 08:18:19;;;;;;;;;;;11.00;99.90;;;;;;5024335;28;19985;-69
2023/03/22 08:20:52;;;;;;;;;;;11.10;99.90;;;;;;5024512;28;19993;-70
2023/03/22 08:23:19;;;;;;;;;;;11.20;99.90;;;;;;5024813;28;19988;-69
2023/03/22 08:25:45;;;;;;;;;;;11.40;99.90;;;;;;5052710;28;19921;-70
2023/03/22 08:28:13;;;;;;;;;;;11.60;99.90;;;;;;5063858;28;20164;-70
2023/03/22 08:30:39;;;;;;;;;;;11.60;99.90;;;;;;5064461;28;19920;-69
2023/03/22 08:33:06;;;;;;;;;;;11.70;99.90;;;;;;5064099;28;20208;-69
2023/03/22 08:35:33;;;;;;;;;;;11.80;99.90;;;;;;5064180;28;19992;-69
2023/03/22 08:38:01;;;;;;;;;;;11.90;99.90;;;;;;5064107;28;19927;-70
2023/03/22 08:40:27;;;;;;;;;;;12.00;99.90;;;;;;5064209;28;19967;-69
2023/03/22 08:42:54;;;;;;;;;;;12.10;99.90;;;;;;5063871;28;19944;-69
2023/03/22 08:45:21;;;;;;;;;;;12.10;99.90;;;;;;5064128;28;20120;-69
2023/03/22 08:47:47;;;;;;;;;;;12.10;99.90;;;;;;5063293;28;19988;-68
2023/03/22 08:50:14;;;;;;;;;;;12.20;99.90;;;;;;5063855;28;19988;-69
2023/03/22 08:52:40;;;;;;;;;;;12.20;99.90;;;;;;5044018;28;19943;-69
2023/03/22 08:55:09;;;;;;;;;;;12.30;99.90;;;;;;5043734;28;19988;-70
2023/03/22 08:57:36;;;;;;;;;;;12.30;99.90;;;;;;5042972;28;19921;-69
2023/03/22 09:00:05;;;;;;;;;;;12.30;99.90;;;;;;5043579;28;20209;-69
2023/03/22 09:02:32;;;;;;;;;;;12.40;99.90;;;;;;5043969;28;19943;-69
2023/03/22 09:04:58;;;;;;;;;;;12.40;99.90;;;;;;5043773;28;20255;-69
2023/03/22 09:07:26;;;;;;;;;;;12.50;99.90;;;;;;5043672;28;19984;-70
2023/03/22 09:09:52;;;;;;;;;;;12.50;99.90;;;;;;5043583;28;19921;-69
2023/03/22 09:12:20;;;;;;;;;;;12.50;99.90;;;;;;5043694;28;19992;-70
2023/03/22 09:14:48;;;;;;;;;;;12.50;99.90;;;;;;5044099;28;19928;-69
2023/03/22 09:17:17;;;;;;;;;;;12.60;99.90;;;;;;5043312;28;19988;-70
2023/03/22 09:19:44;;;;;;;;;;;12.60;99.90;;;;;;5043350;28;19947;-69
2023/03/22 09:22:11;;;;;;;;;;;12.70;99.90;;;;;;5043876;28;19921;-69
2023/03/22 09:24:37;;;;;;;;;;;12.70;99.90;;;;;;5043430;28;19928;-69
2023/03/22 09:27:04;;;;;;;;;;;12.80;99.90;;;;;;5043040;28;19956;-69
2023/03/22 09:29:32;;;;;;;;;;;12.80;99.90;;;;;;5043515;28;19943;-69
2023/03/22 09:31:59;;;;;;;;;;;12.90;99.90;;;;;;5043218;28;19921;-69
2023/03/22 09:34:25;;;;;;;;;;;12.90;99.90;;;;;;5043532;28;19996;-70
2023/03/22 09:36:52;;;;;;;;;;;13.00;99.90;;;;;;5042898;28;19921;-70
2023/03/22 09:39:19;;;;;;;;;;;13.10;99.90;;;;;;5043595;28;19967;-70
2023/03/22 09:41:48;;;;;;;;;;;13.10;99.90;;;;;;5043451;28;19984;-69
2023/03/22 09:44:18;;;;;;;;;;;13.20;99.90;;;;;;5043250;28;19984;-70
2023/03/22 09:46:48;;;;;;;;;;;13.20;99.90;;;;;;5040330;28;19964;-70
2023/03/22 09:49:17;;;;;;;;;;;13.20;99.90;;;;;;5043491;28;19989;-69
2023/03/22 09:51:45;;;;;;;;;;;13.30;99.90;;;;;;5043431;28;19996;-69
2023/03/22 09:54:13;;;;;;;;;;;13.30;99.90;;;;;;5042989;28;19964;-69
2023/03/22 09:56:40;;;;;;;;;;;13.50;99.90;;;;;;5042782;28;19964;-69
2023/03/22 09:59:10;;;;;;;;;;;13.50;99.90;;;;;;5043102;28;19984;-70
2023/03/22 10:01:41;;;;;;;;;;;13.50;99.90;;;;;;5043147;28;20098;-69
2023/03/22 10:04:18;;;;;;;;;;;13.50;99.90;;;;;;5042935;28;19921;-70
2023/03/22 10:06:47;;;;;;;;;;;13.60;99.90;;;;;;5042511;28;19921;-69
2023/03/22 10:09:15;;;;;;;;;;;13.70;99.90;;;;;;5043428;28;19984;-70
2023/03/22 10:11:44;;;;;;;;;;;13.70;99.90;;;;;;5043394;28;19980;-69
2023/03/22 10:14:18;;;;;;;;;;;13.70;99.90;;;;;;5043014;28;19995;-69
2023/03/22 10:16:44;;;;;;;;;;;13.90;99.90;;;;;;5042246;28;19984;-70
2023/03/22 10:19:18;;;;;;;;;;;13.90;99.90;;;;;;5042922;28;19925;-69
2023/03/22 10:21:46;;;;;;;;;;;14.00;99.90;;;;;;5043189;28;19957;-69
2023/03/22 10:24:16;;;;;;;;;;;14.20;99.90;;;;;;5043048;28;19976;-70
2023/03/22 10:26:45;;;;;;;;;;;14.20;99.90;;;;;;5042476;28;19980;-70
2023/03/22 10:29:15;;;;;;;;;;;14.40;99.90;;;;;;5043403;28;19921;-69
2023/03/22 10:31:43;;;;;;;;;;;14.40;99.90;;;;;;5043017;28;19928;-70
2023/03/22 10:34:15;;;;;;;;;;;14.50;99.90;;;;;;5043232;28;19927;-70
2023/03/22 10:36:44;;;;;;;;;;;14.60;99.90;;;;;;5044708;28;19983;-70
2023/03/22 10:39:15;;;;;;;;;;;14.70;99.90;;;;;;5047890;28;19963;-69
2023/03/22 10:41:42;;;;;;;;;;;14.80;99.90;;;;;;5047434;28;20267;-70
2023/03/22 10:44:14;;;;;;;;;;;15.00;99.90;;;;;;5046417;28;19984;-69
2023/03/22 10:46:41;;;;;;;;;;;15.10;99.90;;;;;;5045429;28;20330;-70
2023/03/22 10:49:11;;;;;;;;;;;15.20;99.90;;;;;;5046415;28;19921;-69
2023/03/22 10:51:40;;;;;;;;;;;15.30;99.90;;;;;;5045944;28;20212;-69
2023/03/22 10:54:12;;;;;;;;;;;15.50;99.90;;;;;;5046032;28;19971;-69
2023/03/22 10:56:39;;;;;;;;;;;15.70;99.90;;;;;;5045301;28;19921;-70
2023/03/22 10:59:05;;;;;;;;;;;15.70;99.90;;;;;;5046104;28;20188;-70
2023/03/22 11:01:33;;;;;;;;;;;15.80;99.90;;;;;;5045765;28;20010;-69
2023/03/22 11:04:00;;;;;;;;;;;15.90;99.90;;;;;;5045896;28;19921;-70
2023/03/22 11:06:28;;;;;;;;;;;15.90;99.90;;;;;;5045402;28;19960;-70
2023/03/22 11:08:58;;;;;;;;;;;15.90;99.90;;;;;;5046104;28;20120;-69
2023/03/22 11:11:26;;;;;;;;;;;15.90;99.90;;;;;;5046035;28;19987;-69
2023/03/22 11:13:54;;;;;;;;;;;15.90;99.90;;;;;;5045911;28;19921;-69
2023/03/22 11:16:22;;;;;;;;;;;15.80;99.90;;;;;;5045058;28;19936;-70
2023/03/22 11:18:49;;;;;;;;;;;15.70;99.90;;;;;;5045590;28;19921;-69
2023/03/22 11:21:16;;;;;;;;;;;15.80;99.90;;;;;;5045521;28;19921;-69
2023/03/22 11:23:48;;;;;;;;;;;15.80;99.90;;;;;;5045830;28;20205;-69
2023/03/22 11:26:14;;;;;;;;;;;15.90;99.90;;;;;;5044755;28;19959;-70
2023/03/22 11:28:46;;;;;;;;;;;15.90;99.90;;;;;;5045474;28;19990;-69
2023/03/22 11:31:14;;;;;;;;;;;16.10;99.90;;;;;;5045105;28;19921;-69
2023/03/22 11:33:53;;;;;;;;;;;16.20;99.90;;;;;;5045504;28;20112;-69
2023/03/22 11:36:20;;;;;;;;;;;16.30;99.90;;;;;;5044868;28;19921;-70
2023/03/22 11:38:47;;;;;;;;;;;16.40;99.90;;;;;;5045208;28;19927;-69
2023/03/22 11:41:19;;;;;;;;;;;16.40;99.90;;;;;;5045311;28;19921;-69
2023/03/22 11:43:49;;;;;;;;;;;16.40;99.90;;;;;;5044512;28;19961;-69
2023/03/22 11:46:18;;;;;;;;;;;16.20;99.90;;;;;;5043436;28;19928;-70
2023/03/22 11:48:45;;;;;;;;;;;16.30;99.90;;;;;;5043368;28;19967;-70
2023/03/22 11:51:13;;;;;;;;;;;16.30;99.90;;;;;;5044919;28;19927;-69
2023/03/22 11:53:42;;;;;;;;;;;16.60;99.90;;;;;;5044252;28;20272;-69
2023/03/22 11:56:11;;;;;;;;;;;16.70;99.90;;;;;;5044360;28;19921;-70
2023/03/22 11:58:47;;;;;;;;;;;17.00;99.90;;;;;;5045126;28;19980;-69
2023/03/22 12:01:18;;;;;;;;;;;17.20;99.90;;;;;;5024761;28;19927;-69
2023/03/22 12:03:46;;;;;;;;;;;17.40;99.90;;;;;;5024640;28;19985;-70
2023/03/22 12:06:19;;;;;;;;;;;17.60;99.90;;;;;;5023061;28;20243;-69
2023/03/22 12:08:49;;;;;;;;;;;17.90;99.90;;;;;;5024702;28;19921;-69
2023/03/22 12:11:17;;;;;;;;;;;18.00;99.90;;;;;;5024940;28;19984;-69
2023/03/22 12:13:46;;;;;;;;;;;18.00;99.90;;;;;;5024886;28;19921;-70
2023/03/22 12:16:14;;;;;;;;;;;18.10;99.90;;;;;;5023840;28;20208;-70
2023/03/22 12:18:47;;;;;;;;;;;18.20;99.90;;;;;;5024602;28;19984;-69
2023/03/22 12:21:14;;;;;;;;;;;18.20;99.90;;;;;;5029302;28;19988;-69
2023/03/22 12:23:41;;;;;;;;;;;18.10;99.90;;;;;;5044309;28;20212;-70
2023/03/22 12:26:12;;;;;;;;;;;18.00;99.90;;;;;;5043667;28;19956;-70
2023/03/22 12:28:41;;;;;;;;;;;18.10;99.90;;;;;;5044260;28;19921;-69
2023/03/22 12:31:11;;;;;;;;;;;18.20;99.90;;;;;;5043566;28;20204;-70
2023/03/22 12:33:42;;;;;;;;;;;18.40;99.90;;;;;;5044314;28;20060;-68
2023/03/22 12:36:15;;;;;;;;;;;18.40;99.90;;;;;;5043785;28;19984;-68
2023/03/22 12:38:47;;;;;;;;;;;18.30;99.90;;;;;;5044034;28;20196;-68
2023/03/22 12:41:15;;;;;;;;;;;18.40;99.90;;;;;;5044388;28;19927;-68
2023/03/22 12:43:46;;;;;;;;;;;18.20;99.90;;;;;;5044221;28;19988;-68
2023/03/22 12:46:19;;;;;;;;;;;18.10;99.90;;;;;;5043173;28;20112;-68
2023/03/22 12:48:50;;;;;;;;;;;17.80;99.90;;;;;;5042724;28;19935;-69
2023/03/22 12:51:20;;;;;;;;;;;17.80;99.90;;;;;;5044000;28;19921;-67
2023/03/22 12:53:48;;;;;;;;;;;17.70;99.90;;;;;;5042995;28;19921;-70
2023/03/22 12:56:17;;;;;;;;;;;17.60;99.90;;;;;;5039605;28;19921;-70
2023/03/22 12:58:46;;;;;;;;;;;17.60;99.90;;;;;;5042419;28;19921;-70
2023/03/22 13:01:21;;;;;;;;;;;17.60;99.90;;;;;;5041428;28;19967;-70
2023/03/22 13:03:50;;;;;;;;;;;17.70;99.90;;;;;;5043507;28;20229;-69
2023/03/22 13:06:32;;;;;;;;;;;17.70;99.90;;;;;;5042809;28;19921;-69
2023/03/22 13:09:16;;;;;;;;;;;17.70;99.90;;;;;;5043911;28;19984;-70
2023/03/22 13:11:43;;;;;;;;;;;17.70;99.90;;;;;;5043929;28;19989;-69
2023/03/22 13:14:29;;;;;;;;;;;17.90;99.90;;;;;;5052435;28;20216;-70
2023/03/22 13:16:59;;;;;;;;;;;17.90;99.90;;;;;;5062782;28;19956;-69
2023/03/22 13:19:27;;;;;;;;;;;17.90;99.90;;;;;;5047151;28;20132;-69
2023/03/22 13:22:09;;;;;;;;;;;18.00;99.90;;;;;;5043490;28;19943;-69
2023/03/22 13:24:57;;;;;;;;;;;18.10;99.90;;;;;;5042718;28;19921;-69
2023/03/22 13:27:23;;;;;;;;;;;18.00;99.90;;;;;;5042639;28;19921;-69
2023/03/22 13:29:52;;;;;;;;;;;18.00;99.90;;;;;;5043288;28;19932;-72
2023/03/22 13:32:29;;;;;;;;;;;17.90;99.90;;;;;;5043514;28;19921;-69
2023/03/22 13:34:56;;;;;;;;;;;17.80;99.90;;;;;;5040380;28;20224;-69
2023/03/22 13:37:29;;;;;;;;;;;17.70;99.90;;;;;;5042328;28;20090;-69
2023/03/22 13:40:00;;;;;;;;;;;17.80;99.90;;;;;;5042929;28;19927;-70
2023/03/22 13:42:31;;;;;;;;;;;18.00;99.90;;;;;;5043424;28;19922;-69
2023/03/22 13:45:02;;;;;;;;;;;17.90;99.90;;;;;;5043320;28;19952;-70
2023/03/22 13:47:36;;;;;;;;;;;18.10;99.90;;;;;;5042526;28;19925;-69
2023/03/22 13:50:14;;;;;;;;;;;18.40;99.90;;;;;;5023477;28;19921;-69
2023/03/22 13:52:42;;;;;;;;;;;18.60;99.90;;;;;;5035931;28;20152;-68
2023/03/22 13:55:34;;;;;;;;;;;18.70;99.90;;;;;;5042821;28;19921;-68
2023/03/22 13:58:04;;;;;;;;;;;18.50;99.90;;;;;;5042733;28;19928;-69
2023/03/22 14:00:37;;;;;;;;;;;18.50;99.90;;;;;;5043186;28;19963;-69
2023/03/22 14:03:08;;;;;;;;;;;18.80;99.90;;;;;;5039943;28;19927;-69
2023/03/22 14:05:36;;;;;;;;;;;19.00;99.90;;;;;;5042499;28;19921;-69
2023/03/22 14:08:03;;;;;;;;;;;19.10;99.90;;;;;;5042523;28;19963;-69
2023/03/22 14:10:32;;;;;;;;;;;19.30;99.90;;;;;;5042624;28;19921;-68
2023/03/22 14:13:02;;;;;;;;;;;19.60;99.90;;;;;;5047184;28;19921;-71
2023/03/22 14:15:32;;;;;;;;;;;19.60;99.90;;;;;;5046445;28;19996;-69
2023/03/22 14:17:59;;;;;;;;;;;19.30;99.90;;;;;;5045940;28;19984;-71
2023/03/22 14:20:30;;;;;;;;;;;18.90;99.90;;;;;;5046857;28;19921;-68
2023/03/22 14:22:58;;;;;;;;;;;18.70;99.90;;;;;;5046946;28;19921;-69
2023/03/22 14:25:27;;;;;;;;;;;18.90;99.90;;;;;;5046475;28;19921;-69
2023/03/22 14:27:54;;;;;;;;;;;19.00;99.90;;;;;;5045558;28;19995;-69
2023/03/22 14:30:27;;;;;;;;;;;19.10;99.90;;;;;;5046614;28;19959;-72
2023/03/22 14:32:58;;;;;;;;;;;19.30;99.90;;;;;;5046316;28;20396;-70